Time;durP1;ratioP1;P1;durP2;ratioP2;P2;SDS_P1;SDS_P2;PMS_P1;PMS_P2;Temp;Humidity;BMP_temperature;BMP_pressure;BME280_temperature;BME280_humidity;BME280_pressure;Samples;Min_cycle;Max_cycle;Signal;HPM_P1;HPM_P2
2021/06/25 00:01:56;;;;;;;0.10;0.10;;;15.70;99.90;;;;;;4951283;28;20063;-70
2021/06/25 00:04:21;;;;;;;0.00;0.00;;;15.70;99.90;;;;;;4951596;29;20031;-70
2021/06/25 00:06:47;;;;;;;0.55;0.25;;;15.70;99.90;;;;;;4951638;29;20450;-70
2021/06/25 00:09:13;;;;;;;0.30;0.30;;;15.60;99.90;;;;;;4951719;29;20035;-70
2021/06/25 00:11:39;;;;;;;0.10;0.10;;;15.60;99.90;;;;;;4951558;28;20034;-70
2021/06/25 00:14:06;;;;;;;0.55;0.50;;;15.60;99.90;;;;;;4951630;29;20206;-70
2021/06/25 00:16:32;;;;;;;0.17;0.17;;;15.50;99.90;;;;;;4934442;29;20055;-70
2021/06/25 00:18:58;;;;;;;3.03;0.68;;;15.50;99.90;;;;;;4951439;28;20035;-70
2021/06/25 00:21:24;;;;;;;2.05;1.95;;;15.50;99.90;;;;;;4934362;29;20024;-71
2021/06/25 00:23:50;;;;;;;0.10;0.10;;;15.50;99.90;;;;;;4934228;28;20029;-71
2021/06/25 00:26:16;;;;;;;0.10;0.10;;;15.40;99.90;;;;;;4934544;29;20035;-71
2021/06/25 00:28:42;;;;;;;0.10;0.10;;;15.60;99.90;;;;;;4934205;28;20549;-71
2021/06/25 00:31:08;;;;;;;0.63;0.38;;;15.70;99.90;;;;;;4934128;28;20031;-71
2021/06/25 00:33:34;;;;;;;0.05;0.05;;;15.80;99.90;;;;;;4951307;29;20037;-71
2021/06/25 00:35:59;;;;;;;0.90;0.40;;;16.00;99.90;;;;;;4934082;28;20038;-70
2021/06/25 00:38:25;;;;;;;0.40;0.40;;;15.90;99.90;;;;;;4951305;29;20129;-70
2021/06/25 00:40:51;;;;;;;0.25;0.20;;;15.60;99.90;;;;;;4934046;28;20058;-70
2021/06/25 00:43:17;;;;;;;0.08;0.08;;;15.40;99.90;;;;;;4951155;29;20063;-70
2021/06/25 00:45:43;;;;;;;0.10;0.10;;;15.20;99.90;;;;;;4951003;28;20032;-70
2021/06/25 00:48:09;;;;;;;0.10;0.10;;;15.10;99.90;;;;;;4951217;28;20080;-70
2021/06/25 00:50:35;;;;;;;0.77;0.40;;;15.00;99.90;;;;;;4933970;29;20035;-70
2021/06/25 00:53:02;;;;;;;0.10;0.10;;;15.10;99.90;;;;;;4951124;29;20031;-70
2021/06/25 00:55:30;;;;;;;0.00;0.00;;;15.30;99.90;;;;;;4951162;28;20414;-70
2021/06/25 00:57:56;;;;;;;0.10;0.10;;;15.40;99.90;;;;;;4951067;28;20065;-71
2021/06/25 01:00:22;;;;;;;0.80;0.35;;;15.50;99.90;;;;;;4933756;28;20121;-71
2021/06/25 01:02:48;;;;;;;0.20;0.20;;;15.60;99.90;;;;;;4951009;28;20488;-71
2021/06/25 01:05:16;;;;;;;0.00;0.00;;;15.40;99.90;;;;;;4950830;28;20059;-70
2021/06/25 01:07:43;;;;;;;0.10;0.10;;;15.60;99.90;;;;;;4951125;29;20435;-71
2021/06/25 01:10:10;;;;;;;0.10;0.10;;;15.80;99.90;;;;;;4950954;29;20035;-71
2021/06/25 01:12:40;;;;;;;0.10;0.10;;;15.80;99.90;;;;;;4951339;29;20035;-71
2021/06/25 01:15:06;;;;;;;0.20;0.20;;;15.60;99.90;;;;;;4937105;29;20062;-70
2021/06/25 01:17:37;;;;;;;0.10;0.10;;;15.70;99.90;;;;;;4954253;29;20030;-71
2021/06/25 01:20:09;;;;;;;0.20;0.20;;;15.50;99.90;;;;;;4937081;28;20034;-70
2021/06/25 01:22:38;;;;;;;0.10;0.10;;;15.60;99.90;;;;;;4921210;29;20387;-70
2021/06/25 01:25:14;;;;;;;0.00;0.00;;;15.60;99.90;;;;;;4954216;28;20363;-71
2021/06/25 01:27:41;;;;;;;0.05;0.05;;;15.80;99.90;;;;;;4920958;29;20050;-71
2021/06/25 01:30:12;;;;;;;0.10;0.10;;;15.90;99.90;;;;;;4954093;29;20137;-71
2021/06/25 01:32:39;;;;;;;0.10;0.10;;;15.80;99.90;;;;;;4936877;29;20032;-71
2021/06/25 01:35:06;;;;;;;0.10;0.10;;;15.40;99.90;;;;;;4954064;29;20039;-71
2021/06/25 01:37:32;;;;;;;0.10;0.10;;;15.60;99.90;;;;;;4953880;29;20042;-71
2021/06/25 01:39:58;;;;;;;0.50;0.50;;;15.70;99.90;;;;;;4953700;29;20027;-70
2021/06/25 01:42:24;;;;;;;0.10;0.10;;;15.70;99.90;;;;;;4936763;28;20031;-71
2021/06/25 01:44:56;;;;;;;0.00;0.00;;;15.50;99.90;;;;;;4936518;28;20467;-70
2021/06/25 01:47:21;;;;;;;0.10;0.10;;;15.60;99.90;;;;;;4953762;29;20062;-70
2021/06/25 01:49:47;;;;;;;0.00;0.00;;;15.80;99.90;;;;;;4936707;29;20063;-71
2021/06/25 01:52:17;;;;;;;0.00;0.00;;;15.90;99.90;;;;;;4936554;29;20034;-70
2021/06/25 01:54:44;;;;;;;0.20;0.20;;;15.90;99.90;;;;;;4936521;28;20050;-71
2021/06/25 01:57:10;;;;;;;0.20;0.15;;;15.70;99.90;;;;;;4936656;28;20151;-70
2021/06/25 01:59:36;;;;;;;0.10;0.10;;;15.30;99.90;;;;;;4936371;28;20609;-71
2021/06/25 02:02:02;;;;;;;0.40;0.40;;;15.40;99.90;;;;;;4953531;29;20057;-71
2021/06/25 02:04:27;;;;;;;0.68;0.43;;;15.30;99.90;;;;;;4953493;28;20479;-71
2021/06/25 02:06:53;;;;;;;0.10;0.10;;;15.10;99.90;;;;;;4953478;29;20499;-70
2021/06/25 02:09:19;;;;;;;0.15;0.15;;;15.00;99.90;;;;;;4953439;29;20161;-70
2021/06/25 02:11:44;;;;;;;0.00;0.00;;;15.00;99.90;;;;;;4953330;29;20020;-71
2021/06/25 02:14:10;;;;;;;0.32;0.32;;;14.90;99.90;;;;;;4936395;29;20089;-70
2021/06/25 02:16:37;;;;;;;0.20;0.20;;;15.00;99.90;;;;;;4953371;29;20035;-70
2021/06/25 02:19:03;;;;;;;0.30;0.30;;;15.00;99.90;;;;;;4953107;29;20039;-71
2021/06/25 02:21:29;;;;;;;0.20;0.20;;;15.00;99.90;;;;;;4920456;28;20032;-70
2021/06/25 02:23:55;;;;;;;0.55;0.50;;;14.90;99.90;;;;;;4935932;28;20121;-70
2021/06/25 02:26:21;;;;;;;0.40;0.40;;;14.90;99.90;;;;;;4953257;28;20059;-70
2021/06/25 02:28:47;;;;;;;0.10;0.10;;;14.80;99.90;;;;;;4936046;28;20034;-70
2021/06/25 02:31:13;;;;;;;0.35;0.35;;;14.90;99.90;;;;;;4936004;29;20102;-70
2021/06/25 02:33:38;;;;;;;0.52;0.52;;;14.80;99.90;;;;;;4935990;29;20432;-70
2021/06/25 02:36:05;;;;;;;0.10;0.10;;;14.90;99.90;;;;;;4953082;29;20030;-70
2021/06/25 02:38:31;;;;;;;0.45;0.45;;;14.90;99.90;;;;;;4952883;29;20027;-70
2021/06/25 02:40:56;;;;;;;0.10;0.10;;;14.80;99.90;;;;;;4952874;28;20486;-70
2021/06/25 02:43:22;;;;;;;0.38;0.38;;;14.90;99.90;;;;;;4953360;29;20073;-70
2021/06/25 02:45:48;;;;;;;0.20;0.20;;;15.00;99.90;;;;;;4952927;29;20395;-71
2021/06/25 02:48:14;;;;;;;0.00;0.00;;;15.00;99.90;;;;;;4935734;29;20024;-71
2021/06/25 02:50:40;;;;;;;0.10;0.10;;;15.10;99.90;;;;;;4952953;29;20043;-71
2021/06/25 02:53:06;;;;;;;0.00;0.00;;;15.20;99.90;;;;;;4952730;29;20035;-71
2021/06/25 02:55:32;;;;;;;0.10;0.10;;;15.30;99.90;;;;;;4935590;28;20084;-70
2021/06/25 02:57:58;;;;;;;0.00;0.00;;;15.20;99.90;;;;;;4935667;28;20035;-71
2021/06/25 03:00:24;;;;;;;0.10;0.10;;;15.30;99.90;;;;;;4952546;28;20110;-70
2021/06/25 03:02:49;;;;;;;0.30;0.30;;;15.30;99.90;;;;;;4952702;29;20054;-71
2021/06/25 03:05:16;;;;;;;0.30;0.30;;;15.30;99.90;;;;;;4952548;28;20156;-71
2021/06/25 03:07:42;;;;;;;1.63;1.52;;;15.20;99.90;;;;;;4952546;28;20146;-70
2021/06/25 03:10:09;;;;;;;0.00;0.00;;;15.30;99.90;;;;;;4935422;28;20094;-70
2021/06/25 03:12:35;;;;;;;0.00;0.00;;;15.20;99.90;;;;;;4952651;28;20024;-70
2021/06/25 03:15:02;;;;;;;0.05;0.05;;;15.20;99.90;;;;;;4952457;29;20031;-71
2021/06/25 03:17:27;;;;;;;0.22;0.22;;;15.30;99.90;;;;;;4919523;29;20027;-71
2021/06/25 03:19:53;;;;;;;0.00;0.00;;;15.30;99.90;;;;;;4952542;29;20038;-71
2021/06/25 03:22:19;;;;;;;0.00;0.00;;;15.20;99.90;;;;;;4952449;29;20077;-71
2021/06/25 03:24:45;;;;;;;0.10;0.10;;;15.10;99.90;;;;;;4952349;29;20050;-70
2021/06/25 03:27:10;;;;;;;0.20;0.20;;;15.10;99.90;;;;;;4952375;29;20427;-70
2021/06/25 03:29:36;;;;;;;5.05;1.05;;;15.10;99.90;;;;;;4952231;29;20031;-71
2021/06/25 03:32:02;;;;;;;0.17;0.17;;;15.10;99.90;;;;;;4952240;29;20030;-70
2021/06/25 03:34:28;;;;;;;0.10;0.10;;;14.90;99.90;;;;;;4935113;28;20544;-71
2021/06/25 03:36:54;;;;;;;0.70;0.63;;;14.80;99.90;;;;;;4951470;28;20122;-70
2021/06/25 03:39:20;;;;;;;0.70;0.70;;;14.80;99.90;;;;;;4951988;29;20114;-70
2021/06/25 03:41:46;;;;;;;0.30;0.30;;;14.70;99.90;;;;;;4951910;28;20103;-70
2021/06/25 03:44:12;;;;;;;0.32;0.32;;;14.50;99.90;;;;;;4952080;29;20036;-70
2021/06/25 03:46:38;;;;;;;1.88;0.47;;;14.40;99.90;;;;;;4952125;29;20034;-70
2021/06/25 03:49:04;;;;;;;0.55;0.28;;;14.30;99.90;;;;;;4951888;29;20023;-70
2021/06/25 03:51:30;;;;;;;0.30;0.30;;;14.30;99.90;;;;;;4951881;29;20062;-70
2021/06/25 03:53:56;;;;;;;0.10;0.10;;;14.30;99.90;;;;;;4934847;29;20063;-71
2021/06/25 03:56:21;;;;;;;0.08;0.08;;;14.50;99.90;;;;;;4951831;29;20019;-71
2021/06/25 03:58:49;;;;;;;0.15;0.15;;;14.60;99.90;;;;;;4951901;28;20027;-71
2021/06/25 04:01:17;;;;;;;0.10;0.10;;;14.70;99.90;;;;;;4934639;28;20028;-70
2021/06/25 04:03:43;;;;;;;0.13;0.13;;;14.80;99.90;;;;;;4934679;29;20022;-71
2021/06/25 04:06:09;;;;;;;0.10;0.10;;;14.90;99.90;;;;;;4951563;28;20035;-70
2021/06/25 04:08:35;;;;;;;4.80;1.65;;;14.80;99.90;;;;;;4934290;28;20051;-71
2021/06/25 04:11:03;;;;;;;0.40;0.13;;;14.80;99.90;;;;;;4934490;28;20028;-70
2021/06/25 04:13:29;;;;;;;0.00;0.00;;;14.80;99.90;;;;;;4951610;28;20027;-70
2021/06/25 04:15:56;;;;;;;0.10;0.10;;;14.80;99.90;;;;;;4951559;28;20157;-71
2021/06/25 04:18:22;;;;;;;0.10;0.10;;;14.80;99.90;;;;;;4951468;28;20032;-71
2021/06/25 04:20:49;;;;;;;0.10;0.10;;;14.70;99.90;;;;;;4934579;29;20039;-71
2021/06/25 04:23:15;;;;;;;0.17;0.17;;;14.80;99.90;;;;;;4951500;28;20031;-70
2021/06/25 04:25:41;;;;;;;0.20;0.20;;;14.90;99.90;;;;;;4951757;28;20397;-71
2021/06/25 04:28:07;;;;;;;0.10;0.10;;;14.80;99.90;;;;;;4918491;28;20077;-70
2021/06/25 04:30:34;;;;;;;0.20;0.20;;;14.80;99.90;;;;;;4951390;28;20027;-70
2021/06/25 04:33:01;;;;;;;0.20;0.20;;;14.80;99.90;;;;;;4934287;28;20043;-71
2021/06/25 04:35:28;;;;;;;0.13;0.10;;;14.80;99.90;;;;;;4951375;29;20035;-71
2021/06/25 04:37:53;;;;;;;0.20;0.20;;;14.80;99.90;;;;;;4951043;29;20088;-70
2021/06/25 04:40:19;;;;;;;0.15;0.00;;;14.80;99.90;;;;;;4951289;29;20490;-70
2021/06/25 04:42:46;;;;;;;2.50;0.95;;;14.80;99.90;;;;;;4951157;29;20426;-70
2021/06/25 04:45:13;;;;;;;0.70;0.30;;;14.90;99.90;;;;;;4933975;29;20080;-71
2021/06/25 04:47:44;;;;;;;0.08;0.08;;;15.00;99.90;;;;;;4933836;28;20076;-71
2021/06/25 04:50:10;;;;;;;0.10;0.10;;;15.10;99.90;;;;;;4951152;28;20070;-71
2021/06/25 04:52:36;;;;;;;0.10;0.10;;;15.20;99.90;;;;;;4951389;29;20494;-71
2021/06/25 04:55:02;;;;;;;0.10;0.10;;;15.20;99.90;;;;;;4951096;29;20027;-70
2021/06/25 04:57:28;;;;;;;0.10;0.10;;;15.20;99.90;;;;;;4917906;29;20027;-71
2021/06/25 04:59:54;;;;;;;0.10;0.10;;;15.10;99.90;;;;;;4951207;28;20023;-71
2021/06/25 05:02:20;;;;;;;0.10;0.10;;;15.40;99.90;;;;;;4933750;29;20477;-71
2021/06/25 05:04:45;;;;;;;0.00;0.00;;;15.50;99.90;;;;;;4933770;28;20034;-70
2021/06/25 05:07:11;;;;;;;0.10;0.10;;;15.50;99.90;;;;;;4981239;23;20047;-72
2021/06/25 05:09:37;;;;;;;0.20;0.20;;;15.50;99.90;;;;;;4950860;28;20031;-72
2021/06/25 05:12:03;;;;;;;0.47;0.47;;;15.50;99.90;;;;;;4974934;28;20527;-72
2021/06/25 05:14:28;;;;;;;0.10;0.10;;;15.50;99.90;;;;;;5031803;28;20029;-72
2021/06/25 05:16:54;;;;;;;0.10;0.10;;;15.70;99.90;;;;;;5013927;28;20036;-72
2021/06/25 05:19:20;;;;;;;0.10;0.10;;;15.70;99.90;;;;;;5031697;28;20018;-71
2021/06/25 05:21:46;;;;;;;0.10;0.10;;;15.60;99.90;;;;;;5013976;28;20033;-72
2021/06/25 05:24:11;;;;;;;0.10;0.10;;;15.50;99.90;;;;;;4997703;28;20374;-75
2021/06/25 05:26:37;;;;;;;0.10;0.10;;;15.50;99.90;;;;;;5031743;28;20056;-75
2021/06/25 05:29:04;;;;;;;0.30;0.30;;;15.70;99.90;;;;;;5031743;28;20053;-76
2021/06/25 05:31:29;;;;;;;0.10;0.10;;;15.70;99.90;;;;;;5031775;28;20044;-75
2021/06/25 05:33:57;;;;;;;0.05;0.05;;;15.70;99.90;;;;;;5031992;28;20021;-74
2021/06/25 05:36:23;;;;;;;0.10;0.10;;;15.70;99.90;;;;;;5031569;28;20013;-75
2021/06/25 05:38:57;;;;;;;0.38;0.30;;;15.90;99.90;;;;;;5032458;28;20024;-74
2021/06/25 05:41:23;;;;;;;0.28;0.28;;;15.80;99.90;;;;;;5033054;28;20104;-75
2021/06/25 05:46:16;;;;;;;0.10;0.10;;;15.80;99.90;;;;;;5030561;28;20492;-75
2021/06/25 05:48:42;;;;;;;0.45;0.30;;;15.90;99.90;;;;;;5030158;28;20028;-77
2021/06/25 05:51:08;;;;;;;0.08;0.08;;;15.90;99.90;;;;;;5033996;28;20067;-74
2021/06/25 05:53:35;;;;;;;0.10;0.10;;;16.10;99.90;;;;;;5042494;28;20018;-76
2021/06/25 05:56:01;;;;;;;0.10;0.10;;;16.20;99.90;;;;;;4998109;28;20524;-76
2021/06/25 05:58:26;;;;;;;0.10;0.10;;;16.40;99.90;;;;;;5031810;28;20096;-76
2021/06/25 06:00:52;;;;;;;1.95;1.85;;;16.70;99.90;;;;;;5017412;28;20496;-76
2021/06/25 06:03:18;;;;;;;0.10;0.10;;;16.90;99.90;;;;;;5034735;28;20036;-76
2021/06/25 06:05:43;;;;;;;0.10;0.10;;;17.10;99.90;;;;;;5034685;28;20034;-75
2021/06/25 06:08:10;;;;;;;0.13;0.13;;;17.10;99.90;;;;;;5034975;28;20432;-75
2021/06/25 06:10:36;;;;;;;0.30;0.30;;;16.90;99.90;;;;;;5031251;28;20109;-75
2021/06/25 06:13:02;;;;;;;0.10;0.10;;;16.80;99.90;;;;;;5013900;28;20096;-75
2021/06/25 06:15:28;;;;;;;0.13;0.13;;;16.80;99.90;;;;;;5014592;28;20080;-76
2021/06/25 06:17:56;;;;;;;0.10;0.10;;;16.90;99.90;;;;;;5027716;28;20021;-75
2021/06/25 06:20:25;;;;;;;0.30;0.30;;;16.80;99.90;;;;;;5034358;28;20029;-75
2021/06/25 06:33:54;;;;;;;0.10;0.10;;;17.20;99.90;;;;;;5023242;28;20033;-75
2021/06/25 06:36:33;;;;;;;0.20;0.20;;;16.90;99.90;;;;;;4995241;28;20022;-75
2021/06/25 06:39:01;;;;;;;0.10;0.10;;;17.00;99.90;;;;;;5031008;28;20022;-75
2021/06/25 06:41:28;;;;;;;0.50;0.50;;;17.10;99.90;;;;;;5032230;28;20536;-76
2021/06/25 06:43:55;;;;;;;0.40;0.40;;;17.10;99.90;;;;;;5033432;28;20026;-76
2021/06/25 06:46:21;;;;;;;0.10;0.10;;;17.10;99.90;;;;;;5016302;28;20104;-76
2021/06/25 06:48:47;;;;;;;0.10;0.10;;;17.20;99.90;;;;;;5033296;28;20108;-76
2021/06/25 06:51:15;;;;;;;0.98;0.50;;;17.60;99.90;;;;;;5034057;28;20026;-75
2021/06/25 06:53:45;;;;;;;0.73;0.65;;;17.80;99.90;;;;;;5033172;28;20017;-76
2021/06/25 06:56:12;;;;;;;2.83;1.15;;;18.00;99.90;;;;;;5014376;28;20033;-76
2021/06/25 06:58:39;;;;;;;0.38;0.38;;;18.00;99.90;;;;;;5031978;28;20504;-76
2021/06/25 07:01:05;;;;;;;0.20;0.20;;;17.90;99.90;;;;;;5032973;28;20025;-78
2021/06/25 07:03:31;;;;;;;0.95;0.90;;;17.90;99.90;;;;;;5033940;28;20040;-78
2021/06/25 07:05:57;;;;;;;0.60;0.60;;;17.90;99.90;;;;;;5037001;28;20029;-79
2021/06/25 07:08:22;;;;;;;1.35;0.57;;;18.10;99.90;;;;;;5017695;28;20041;-78
2021/06/25 07:10:48;;;;;;;0.65;0.55;;;17.90;99.90;;;;;;5031599;28;20426;-78
2021/06/25 07:13:14;;;;;;;0.35;0.35;;;18.10;99.90;;;;;;5027314;28;20022;-78
2021/06/25 07:15:40;;;;;;;0.30;0.22;;;18.20;99.90;;;;;;5013279;28;20056;-76
2021/06/25 07:18:06;;;;;;;0.22;0.20;;;18.10;99.90;;;;;;4998371;28;20457;-78
2021/06/25 07:20:33;;;;;;;0.43;0.40;;;17.70;99.90;;;;;;5015506;28;20056;-77
2021/06/25 07:23:00;;;;;;;0.10;0.10;;;17.60;99.90;;;;;;5032910;28;20037;-76
2021/06/25 07:25:27;;;;;;;0.10;0.10;;;17.70;99.90;;;;;;5031999;28;20085;-76
2021/06/25 07:27:54;;;;;;;0.10;0.10;;;17.90;99.90;;;;;;5014992;28;20504;-76
2021/06/25 07:30:20;;;;;;;0.30;0.15;;;18.00;99.90;;;;;;5014089;28;20029;-77
2021/06/25 07:32:47;;;;;;;0.10;0.10;;;17.90;99.90;;;;;;5014615;28;20052;-77
2021/06/25 07:35:13;;;;;;;0.10;0.10;;;18.20;99.90;;;;;;5014026;28;20017;-77
2021/06/25 07:37:38;;;;;;;0.10;0.10;;;18.30;99.90;;;;;;5015044;28;20095;-76
2021/06/25 07:40:05;;;;;;;0.88;0.80;;;18.20;99.90;;;;;;5014766;28;20537;-76
2021/06/25 07:42:31;;;;;;;0.10;0.10;;;18.10;99.90;;;;;;5014348;28;20163;-77
2021/06/25 07:44:58;;;;;;;0.10;0.10;;;18.20;99.90;;;;;;4997777;28;20089;-77
2021/06/25 07:47:24;;;;;;;1.25;0.50;;;18.30;99.90;;;;;;4997720;28;20045;-78
2021/06/25 07:49:52;;;;;;;0.10;0.10;;;18.50;99.90;;;;;;4997471;28;20030;-78
2021/06/25 07:52:18;;;;;;;1.00;0.50;;;18.80;99.90;;;;;;5014656;28;20494;-77
2021/06/25 07:54:43;;;;;;;1.75;0.70;;;19.00;99.90;;;;;;5014206;28;20030;-77
2021/06/25 07:57:09;;;;;;;0.80;0.80;;;18.80;99.90;;;;;;5032004;28;20041;-77
2021/06/25 07:59:35;;;;;;;0.20;0.20;;;18.40;99.90;;;;;;5014142;28;20032;-77
2021/06/25 08:02:01;;;;;;;1.92;0.77;;;18.40;99.90;;;;;;5031264;28;20105;-76
2021/06/25 08:04:28;;;;;;;0.10;0.10;;;18.30;99.90;;;;;;5031235;28;20044;-77
2021/06/25 08:06:54;;;;;;;0.20;0.20;;;18.60;99.90;;;;;;5031530;28;20468;-77
2021/06/25 08:09:20;;;;;;;1.98;0.50;;;18.50;99.90;;;;;;5013866;28;20026;-77
2021/06/25 08:11:49;;;;;;;0.10;0.10;;;18.60;99.90;;;;;;5031032;28;20025;-76
2021/06/25 08:14:14;;;;;;;3.80;0.90;;;18.90;99.90;;;;;;4997877;28;20113;-77
2021/06/25 08:16:40;;;;;;;0.10;0.10;;;19.20;99.90;;;;;;4996797;28;20029;-77
2021/06/25 08:19:07;;;;;;;0.10;0.10;;;19.40;99.90;;;;;;5031442;28;20072;-77
2021/06/25 08:21:34;;;;;;;1.27;0.63;;;19.50;99.90;;;;;;5013294;28;20075;-77
2021/06/25 08:24:00;;;;;;;0.38;0.30;;;19.10;99.90;;;;;;5013748;28;20029;-76
2021/06/25 08:26:28;;;;;;;0.10;0.10;;;19.00;99.90;;;;;;5013114;28;20109;-77
2021/06/25 08:28:55;;;;;;;2.08;1.58;;;19.00;99.90;;;;;;5013441;28;20067;-77
2021/06/25 08:31:21;;;;;;;1.08;0.50;;;19.00;99.90;;;;;;5013217;28;20439;-77
2021/06/25 08:33:47;;;;;;;0.55;0.55;;;19.00;99.90;;;;;;5013590;28;20076;-77
2021/06/25 08:36:13;;;;;;;0.13;0.13;;;18.80;99.90;;;;;;4996780;28;20053;-77
2021/06/25 08:38:39;;;;;;;0.52;0.52;;;18.70;99.90;;;;;;5024821;28;20400;-77
2021/06/25 08:41:05;;;;;;;0.30;0.30;;;18.60;99.90;;;;;;5013132;28;20026;-77
2021/06/25 08:43:31;;;;;;;2.35;1.52;;;18.80;99.90;;;;;;5013302;28;20535;-77
2021/06/25 08:46:01;;;;;;;0.90;0.85;;;19.20;99.90;;;;;;5012659;28;20130;-77
2021/06/25 08:48:28;;;;;;;0.60;0.60;;;19.40;99.90;;;;;;5012977;28;20025;-77
2021/06/25 08:50:56;;;;;;;0.98;0.65;;;19.90;99.90;;;;;;5030468;28;20048;-77
2021/06/25 08:53:22;;;;;;;0.10;0.10;;;20.10;99.90;;;;;;5031064;28;20033;-77
2021/06/25 08:55:47;;;;;;;0.00;0.00;;;19.90;99.90;;;;;;5012860;28;20469;-77
2021/06/25 08:58:18;;;;;;;0.30;0.30;;;20.40;99.90;;;;;;5013205;28;20037;-77
2021/06/25 09:00:44;;;;;;;4.35;1.17;;;21.00;97.10;;;;;;5012972;28;20433;-77
2021/06/25 09:03:25;;;;;;;0.38;0.38;;;20.60;97.00;;;;;;5012966;28;20292;-77
2021/06/25 09:05:51;;;;;;;0.20;0.20;;;20.40;96.70;;;;;;5030917;28;20045;-77
2021/06/25 09:08:27;;;;;;;0.30;0.30;;;20.60;96.70;;;;;;5012491;28;20060;-77
2021/06/25 09:10:57;;;;;;;0.30;0.30;;;20.80;95.90;;;;;;5012478;28;20021;-77
2021/06/25 09:13:37;;;;;;;0.10;0.10;;;21.00;92.90;;;;;;5012973;28;20026;-77
2021/06/25 09:16:28;;;;;;;0.10;0.10;;;20.80;94.10;;;;;;5029520;28;20025;-77
2021/06/25 09:19:03;;;;;;;0.10;0.10;;;20.40;96.60;;;;;;5030279;28;20064;-77
2021/06/25 09:21:37;;;;;;;0.22;0.22;;;20.40;95.00;;;;;;5030015;28;20034;-77
2021/06/25 09:24:21;;;;;;;0.10;0.10;;;20.40;95.00;;;;;;5014066;28;20025;-77
2021/06/25 09:26:48;;;;;;;1.70;1.27;;;20.50;96.50;;;;;;5031470;28;20025;-76
2021/06/25 09:29:20;;;;;;;0.10;0.10;;;20.00;94.60;;;;;;5031222;28;20032;-78
2021/06/25 09:31:58;;;;;;;0.43;0.38;;;19.80;96.90;;;;;;5013874;28;20022;-76
2021/06/25 09:34:45;;;;;;;0.30;0.30;;;19.70;97.10;;;;;;5015711;28;20029;-77
2021/06/25 09:37:13;;;;;;;0.10;0.10;;;19.60;98.80;;;;;;5018131;28;20120;-78
2021/06/25 09:39:56;;;;;;;0.50;0.50;;;19.30;99.40;;;;;;5017773;28;20532;-78
2021/06/25 09:42:22;;;;;;;0.10;0.10;;;19.30;99.90;;;;;;5035849;28;20032;-77
2021/06/25 09:45:06;;;;;;;0.60;0.60;;;19.20;99.90;;;;;;5017618;28;20108;-77
2021/06/25 09:47:41;;;;;;;0.20;0.20;;;19.30;99.90;;;;;;5017071;28;20022;-76
2021/06/25 09:50:07;;;;;;;0.70;0.20;;;19.40;99.90;;;;;;5035392;28;20032;-77
2021/06/25 09:52:50;;;;;;;0.88;0.70;;;19.30;99.90;;;;;;5001272;28;20018;-77
2021/06/25 09:55:26;;;;;;;0.08;0.08;;;19.30;99.90;;;;;;5001559;28;20388;-78
2021/06/25 10:03:37;;;;;;;0.10;0.10;;;19.40;99.90;;;;;;5034566;28;20397;-74
2021/06/25 10:06:08;;;;;;;0.22;0.22;;;19.30;99.90;;;;;;5016699;28;20033;-75
2021/06/25 10:08:34;;;;;;;1.70;1.27;;;19.50;99.90;;;;;;5034161;28;20022;-74
2021/06/25 10:11:02;;;;;;;0.40;0.30;;;19.70;99.90;;;;;;5016571;28;20120;-74
2021/06/25 10:13:30;;;;;;;0.28;0.28;;;19.60;99.90;;;;;;5016802;28;20049;-74
2021/06/25 10:15:56;;;;;;;0.22;0.20;;;20.10;99.90;;;;;;5034276;28;20025;-74
2021/06/25 10:18:24;;;;;;;0.17;0.10;;;20.20;99.60;;;;;;5034318;28;20499;-74
2021/06/25 10:20:50;;;;;;;0.25;0.25;;;20.40;97.90;;;;;;5016320;28;20029;-74
2021/06/25 10:23:17;;;;;;;0.00;0.00;;;20.30;95.90;;;;;;5034177;28;20507;-74
2021/06/25 10:25:45;;;;;;;0.10;0.10;;;20.10;95.80;;;;;;5034097;28;20025;-74
2021/06/25 10:28:14;;;;;;;0.00;0.00;;;20.50;95.90;;;;;;5033961;28;20385;-74
2021/06/25 10:30:41;;;;;;;0.35;0.35;;;20.70;94.00;;;;;;5016292;28;20052;-74
2021/06/25 10:33:08;;;;;;;0.57;0.55;;;20.80;92.00;;;;;;5016067;28;20057;-74
2021/06/25 10:35:34;;;;;;;0.10;0.10;;;20.40;91.00;;;;;;5034127;28;20060;-74
2021/06/25 10:37:59;;;;;;;0.10;0.10;;;20.40;91.40;;;;;;5033826;28;20064;-74
2021/06/25 10:40:28;;;;;;;0.70;0.70;;;21.00;91.20;;;;;;5033946;28;20025;-74
2021/06/25 10:42:56;;;;;;;0.30;0.30;;;21.00;85.70;;;;;;5033996;28;20056;-74
2021/06/25 10:45:42;;;;;;;0.20;0.20;;;20.90;90.00;;;;;;5033533;28;20033;-74
2021/06/25 10:48:08;;;;;;;1.42;0.70;;;20.80;89.20;;;;;;5033726;28;20014;-74
2021/06/25 10:50:35;;;;;;;0.20;0.20;;;20.80;88.60;;;;;;5016068;28;20068;-74
2021/06/25 10:53:10;;;;;;;0.20;0.20;;;20.80;88.20;;;;;;5033523;28;20018;-75
2021/06/25 10:55:46;;;;;;;0.10;0.10;;;21.10;87.40;;;;;;5033747;28;20032;-74
2021/06/25 10:58:23;;;;;;;0.10;0.10;;;21.60;88.80;;;;;;5033397;28;20116;-75
2021/06/25 11:00:56;;;;;;;0.03;0.03;;;22.40;82.30;;;;;;5033400;28;20028;-74
2021/06/25 11:03:36;;;;;;;0.00;0.00;;;22.10;81.90;;;;;;5033535;28;20044;-74
2021/06/25 11:06:03;;;;;;;0.55;0.55;;;22.20;80.00;;;;;;5077121;23;20061;-72
2021/06/25 11:08:29;;;;;;;0.00;0.00;;;22.30;77.10;;;;;;5013466;28;20062;-72
2021/06/25 11:10:59;;;;;;;0.20;0.20;;;22.80;76.90;;;;;;5013291;28;20389;-72
2021/06/25 11:13:27;;;;;;;0.15;0.15;;;23.30;74.10;;;;;;4995690;28;20022;-72
2021/06/25 11:15:59;;;;;;;5.07;1.75;;;23.30;73.30;;;;;;4995796;28;20025;-72
2021/06/25 11:18:30;;;;;;;0.00;0.00;;;23.60;73.60;;;;;;4995581;28;20512;-72
2021/06/25 11:21:09;;;;;;;0.15;0.15;;;23.90;71.20;;;;;;5012775;28;20060;-73
2021/06/25 11:23:35;;;;;;;0.45;0.45;;;23.30;71.80;;;;;;5013205;28;20044;-72
2021/06/25 11:26:14;;;;;;;0.35;0.20;;;22.50;74.10;;;;;;5013097;28;20493;-72
2021/06/25 11:28:45;;;;;;;0.00;0.00;;;22.20;76.40;;;;;;4979179;28;20022;-72
2021/06/25 11:31:17;;;;;;;0.38;0.10;;;22.40;76.40;;;;;;5013085;28;20109;-73
2021/06/25 11:33:54;;;;;;;0.20;0.20;;;22.80;69.40;;;;;;5012936;28;20029;-72
2021/06/25 11:36:41;;;;;;;0.52;0.35;;;23.40;66.00;;;;;;4995378;28;20029;-73
2021/06/25 11:39:20;;;;;;;0.10;0.10;;;23.00;64.80;;;;;;5012748;28;20454;-73
2021/06/25 11:41:48;;;;;;;0.00;0.00;;;23.50;65.40;;;;;;4977224;28;20033;-73
2021/06/25 11:44:16;;;;;;;0.00;0.00;;;23.90;64.00;;;;;;5012549;28;20080;-73
2021/06/25 11:46:51;;;;;;;2.35;1.55;;;23.70;64.50;;;;;;5012635;28;20355;-73
2021/06/25 11:49:18;;;;;;;0.00;0.00;;;24.00;62.30;;;;;;5012700;28;20080;-73
2021/06/25 11:51:44;;;;;;;0.00;0.00;;;24.30;64.30;;;;;;5012227;28;20018;-72
2021/06/25 11:54:12;;;;;;;3.78;0.68;;;24.50;63.40;;;;;;4995131;28;20030;-72
2021/06/25 11:56:42;;;;;;;0.10;0.10;;;24.00;60.70;;;;;;5012092;28;20032;-72
2021/06/25 11:59:10;;;;;;;0.10;0.10;;;23.60;64.50;;;;;;4977960;28;20393;-75
2021/06/25 12:01:58;;;;;;;0.00;0.00;;;23.30;65.50;;;;;;4993887;28;20053;-73
2021/06/25 12:04:42;;;;;;;0.10;0.10;;;23.00;66.20;;;;;;5012646;28;20022;-74
2021/06/25 12:07:12;;;;;;;0.40;0.40;;;22.80;67.90;;;;;;4994837;28;20038;-74
2021/06/25 12:09:50;;;;;;;0.13;0.07;;;22.90;68.30;;;;;;5012700;28;20051;-74
2021/06/25 12:12:31;;;;;;;0.30;0.25;;;22.90;68.60;;;;;;5012629;28;20073;-74
2021/06/25 12:14:59;;;;;;;0.00;0.00;;;22.90;68.80;;;;;;5012781;28;20029;-74
2021/06/25 12:17:58;;;;;;;0.55;0.40;;;23.50;67.40;;;;;;4978863;28;20464;-74
2021/06/25 12:20:32;;;;;;;0.50;0.22;;;23.30;65.50;;;;;;5012114;28;20038;-74
2021/06/25 12:23:01;;;;;;;0.38;0.38;;;22.90;66.90;;;;;;5012463;28;20056;-74
2021/06/25 12:25:52;;;;;;;0.00;0.00;;;23.00;67.20;;;;;;5012603;28;20446;-74
2021/06/25 12:28:23;;;;;;;0.20;0.20;;;23.40;67.70;;;;;;4994637;28;20362;-74
2021/06/25 12:30:49;;;;;;;0.00;0.00;;;23.60;63.00;;;;;;4994935;28;20440;-74
2021/06/25 12:33:16;;;;;;;0.68;0.20;;;23.60;62.90;;;;;;4994877;28;20026;-74
2021/06/25 12:35:48;;;;;;;0.00;0.00;;;23.80;63.10;;;;;;5012471;28;20076;-73
2021/06/25 12:38:17;;;;;;;0.10;0.10;;;24.00;63.50;;;;;;5012324;28;20054;-74
2021/06/25 12:40:50;;;;;;;0.30;0.17;;;23.90;62.10;;;;;;4994732;28;20033;-74
2021/06/25 12:43:41;;;;;;;0.00;0.00;;;23.70;63.10;;;;;;4994902;28;20030;-76
2021/06/25 12:46:10;;;;;;;0.00;0.00;;;23.20;64.70;;;;;;5012271;28;20022;-74
2021/06/25 12:48:50;;;;;;;0.03;0.03;;;23.00;66.30;;;;;;4994448;28;20029;-74
2021/06/25 12:51:19;;;;;;;0.20;0.20;;;23.30;67.60;;;;;;4994531;28;20042;-74
2021/06/25 12:53:46;;;;;;;0.10;0.10;;;23.20;64.80;;;;;;4994425;28;20382;-74
2021/06/25 12:56:22;;;;;;;0.00;0.00;;;23.10;66.70;;;;;;4994364;28;20029;-74
2021/06/25 12:58:50;;;;;;;0.00;0.00;;;22.90;67.80;;;;;;5011924;28;20026;-75
2021/06/25 13:01:16;;;;;;;1.67;1.13;;;23.00;68.60;;;;;;5012058;28;20052;-74
2021/06/25 13:03:44;;;;;;;0.08;0.08;;;22.70;70.20;;;;;;4994702;28;20030;-74
2021/06/25 13:06:26;;;;;;;0.10;0.10;;;22.60;71.60;;;;;;4994254;28;20116;-74
2021/06/25 13:08:52;;;;;;;0.25;0.25;;;22.70;71.20;;;;;;4995621;28;20136;-74
2021/06/25 13:11:20;;;;;;;0.20;0.20;;;22.40;69.80;;;;;;5016129;28;20481;-74
2021/06/25 13:13:46;;;;;;;0.98;0.88;;;22.60;70.80;;;;;;4998570;28;20131;-74